RJOM(METAR)
07/23 16:00
METAR RJOM 230700Z 19005KT 9999 FEW025 SCT050 BKN070 28/24 Q1006 RMK
1CU025 4SC050 6AC070 A2971=
戻る
トップページへ戻る
IMOC Co,.Ltd.